Time;durP1;ratioP1;P1;durP2;ratioP2;P2;SDS_P1;SDS_P2;PMS_P1;PMS_P2;Temp;Humidity;BMP_temperature;BMP_pressure;BME280_temperature;BME280_humidity;BME280_pressure;Samples;Min_cycle;Max_cycle;Signal;HPM_P1;HPM_P2
2021/08/20 00:00:08;;;;;;;6.18;4.28;;;;;20.80;101349.00;;;;5060051;28;20199;-76
2021/08/20 00:02:36;;;;;;;5.43;4.25;;;;;20.80;101344.00;;;;5064409;28;20599;-75
2021/08/20 00:05:05;;;;;;;5.20;4.43;;;;;20.80;101344.00;;;;5069450;28;20210;-76
2021/08/20 00:07:32;;;;;;;5.25;4.07;;;;;20.80;101345.00;;;;5069466;28;20206;-76
2021/08/20 00:10:00;;;;;;;5.32;4.55;;;;;20.70;101342.00;;;;5069380;28;20206;-76
2021/08/20 00:12:28;;;;;;;5.78;4.60;;;;;20.70;101351.00;;;;5069097;28;20206;-75
2021/08/20 00:14:56;;;;;;;6.40;4.28;;;;;20.70;101342.00;;;;5069336;28;20198;-75
2021/08/20 00:17:24;;;;;;;4.97;4.25;;;;;20.70;101338.00;;;;5069010;28;20572;-75
2021/08/20 00:19:51;;;;;;;5.68;4.03;;;;;20.70;101343.00;;;;5067371;28;20213;-75
2021/08/20 00:22:18;;;;;;;7.43;4.35;;;;;20.60;101344.00;;;;5068889;28;20201;-76
2021/08/20 00:24:45;;;;;;;5.15;4.30;;;;;20.60;101338.00;;;;5069610;28;20203;-75
2021/08/20 00:27:13;;;;;;;4.88;4.03;;;;;20.60;101341.00;;;;5068994;28;20203;-76
2021/08/20 00:29:41;;;;;;;6.07;5.47;;;;;20.60;101346.00;;;;5069423;28;20203;-75
2021/08/20 00:32:09;;;;;;;5.90;5.30;;;;;20.60;101341.00;;;;5054994;28;20664;-76
2021/08/20 00:34:37;;;;;;;7.07;4.75;;;;;20.60;101339.00;;;;5049593;28;20642;-75
2021/08/20 00:37:04;;;;;;;6.47;4.93;;;;;20.60;101342.00;;;;5050418;28;20230;-75
2021/08/20 00:39:31;;;;;;;5.43;4.82;;;;;20.60;101344.00;;;;5049751;28;20223;-75
2021/08/20 00:41:59;;;;;;;9.75;5.88;;;;;20.60;101332.00;;;;5049374;28;20745;-75
2021/08/20 00:44:26;;;;;;;5.85;5.25;;;;;20.60;101323.00;;;;5049339;28;20691;-76
2021/08/20 00:46:54;;;;;;;6.07;4.90;;;;;20.60;101327.00;;;;5049388;28;20199;-76
2021/08/20 00:49:22;;;;;;;5.53;4.68;;;;;20.60;101328.00;;;;5048415;28;20666;-75
2021/08/20 00:51:49;;;;;;;8.60;5.32;;;;;20.60;101333.00;;;;5048973;28;20200;-75
2021/08/20 00:54:20;;;;;;;6.63;5.40;;;;;20.70;101328.00;;;;5049451;28;20227;-76
2021/08/20 00:56:48;;;;;;;6.68;5.97;;;;;20.70;101325.00;;;;5049289;28;20227;-76
2021/08/20 00:59:17;;;;;;;6.47;5.75;;;;;20.70;101322.00;;;;5054583;28;20222;-75
2021/08/20 01:01:44;;;;;;;7.10;5.10;;;;;20.70;101318.00;;;;5069412;28;20194;-75
2021/08/20 01:04:13;;;;;;;5.97;5.38;;;;;20.70;101318.00;;;;5068214;28;20203;-75
2021/08/20 01:06:41;;;;;;;10.18;5.13;;;;;20.70;101317.00;;;;5069116;28;20198;-75
2021/08/20 01:09:09;;;;;;;6.22;5.18;;;;;20.70;101316.00;;;;5067478;28;20198;-75
2021/08/20 01:11:37;;;;;;;5.72;4.53;;;;;20.70;101321.00;;;;5049150;28;20195;-76
2021/08/20 01:14:04;;;;;;;6.45;5.13;;;;;20.70;101324.00;;;;5049094;28;20204;-75
2021/08/20 01:16:32;;;;;;;7.00;4.95;;;;;20.70;101319.00;;;;5049020;28;20207;-75
2021/08/20 01:19:00;;;;;;;5.10;4.60;;;;;20.80;101327.00;;;;5048626;28;20638;-75
2021/08/20 01:21:28;;;;;;;5.45;4.95;;;;;20.70;101326.00;;;;5048329;28;20219;-75
2021/08/20 01:23:58;;;;;;;6.38;5.07;;;;;20.80;101322.00;;;;5048515;28;20200;-76
2021/08/20 01:26:28;;;;;;;5.43;4.85;;;;;20.70;101325.00;;;;5048871;28;20203;-76
2021/08/20 01:28:55;;;;;;;8.50;5.32;;;;;20.80;101329.00;;;;5048526;28;20211;-76
2021/08/20 01:31:22;;;;;;;8.20;6.05;;;;;20.80;101322.00;;;;5047937;28;20589;-75
2021/08/20 01:33:50;;;;;;;5.55;4.97;;;;;20.70;101320.00;;;;5048384;28;20210;-75
2021/08/20 01:36:17;;;;;;;5.82;4.85;;;;;20.70;101320.00;;;;5047664;28;20235;-75
2021/08/20 01:38:47;;;;;;;6.70;4.85;;;;;20.70;101318.00;;;;5048058;28;20223;-75
2021/08/20 01:41:14;;;;;;;6.95;5.25;;;;;20.70;101311.00;;;;5048345;28;20584;-75
2021/08/20 01:43:43;;;;;;;5.30;4.80;;;;;20.70;101314.00;;;;5048314;28;20207;-75
2021/08/20 01:46:11;;;;;;;5.80;4.95;;;;;20.70;101314.00;;;;5047329;28;20207;-75
2021/08/20 01:48:45;;;;;;;7.22;5.70;;;;;20.60;101316.00;;;;5047943;28;20195;-75
2021/08/20 01:51:13;;;;;;;5.32;4.55;;;;;20.70;101312.00;;;;5047861;28;20342;-75
2021/08/20 01:53:41;;;;;;;5.15;4.57;;;;;20.60;101320.00;;;;5047312;28;20243;-75
2021/08/20 01:56:14;;;;;;;7.45;4.85;;;;;20.60;101311.00;;;;5047985;28;20199;-75
2021/08/20 01:58:43;;;;;;;8.15;5.15;;;;;20.60;101313.00;;;;5048829;28;20227;-75
2021/08/20 02:01:11;;;;;;;5.63;5.00;;;;;20.60;101318.00;;;;5057828;28;20207;-75
2021/08/20 02:03:38;;;;;;;7.22;5.30;;;;;20.60;101319.00;;;;5048938;28;20215;-75
2021/08/20 02:06:07;;;;;;;5.43;4.70;;;;;20.60;101322.00;;;;5052133;28;20203;-75
2021/08/20 02:08:34;;;;;;;6.47;5.53;;;;;20.50;101323.00;;;;5051824;28;20207;-75
2021/08/20 02:11:01;;;;;;;6.53;5.43;;;;;20.50;101319.00;;;;5051670;28;20207;-75
2021/08/20 02:13:29;;;;;;;6.38;5.30;;;;;20.50;101310.00;;;;5051741;28;20198;-75
2021/08/20 02:15:58;;;;;;;6.22;5.07;;;;;20.50;101311.00;;;;5051594;28;20671;-76
2021/08/20 02:18:25;;;;;;;6.13;5.53;;;;;20.50;101313.00;;;;5051934;28;20250;-75
2021/08/20 02:20:53;;;;;;;7.88;5.65;;;;;20.50;101314.00;;;;5051104;28;20207;-76
2021/08/20 02:23:20;;;;;;;5.68;5.15;;;;;20.50;101309.00;;;;5051808;28;20215;-76
2021/08/20 02:25:48;;;;;;;6.57;5.32;;;;;20.50;101318.00;;;;5051235;28;20203;-76
2021/08/20 02:28:15;;;;;;;6.95;5.88;;;;;20.50;101318.00;;;;5051279;28;20195;-75
2021/08/20 02:30:42;;;;;;;7.93;5.75;;;;;20.50;101317.00;;;;5051549;28;20223;-76
2021/08/20 02:33:11;;;;;;;6.60;5.25;;;;;20.40;101324.00;;;;5051292;28;20199;-75
2021/08/20 02:35:38;;;;;;;9.63;5.68;;;;;20.50;101311.00;;;;5051780;28;20210;-75
2021/08/20 02:38:05;;;;;;;7.38;4.82;;;;;20.40;101319.00;;;;5050919;28;20211;-76
2021/08/20 02:40:32;;;;;;;6.07;5.47;;;;;20.40;101325.00;;;;5051610;28;20191;-76
2021/08/20 02:43:00;;;;;;;6.63;5.85;;;;;20.40;101319.00;;;;5050937;28;20215;-76
2021/08/20 02:45:27;;;;;;;6.15;5.35;;;;;20.50;101319.00;;;;5050440;28;20208;-76
2021/08/20 02:47:55;;;;;;;7.35;5.90;;;;;20.50;101320.00;;;;5051746;28;20210;-75
2021/08/20 02:50:23;;;;;;;8.00;6.43;;;;;20.40;101313.00;;;;5051806;28;20200;-75
2021/08/20 02:52:50;;;;;;;7.80;6.07;;;;;20.50;101317.00;;;;5052427;28;20203;-75
2021/08/20 02:55:18;;;;;;;6.15;5.47;;;;;20.50;101311.00;;;;5051152;28;20222;-76
2021/08/20 02:57:45;;;;;;;8.45;6.47;;;;;20.50;101306.00;;;;5051829;28;20196;-76
2021/08/20 03:00:13;;;;;;;7.35;6.22;;;;;20.50;101306.00;;;;5055161;28;20226;-76
2021/08/20 03:02:41;;;;;;;6.97;6.15;;;;;20.50;101304.00;;;;5068355;28;20202;-76
2021/08/20 03:05:09;;;;;;;6.72;5.60;;;;;20.50;101305.00;;;;5071270;28;20233;-76
2021/08/20 03:07:38;;;;;;;6.63;5.25;;;;;20.50;101303.00;;;;5071707;28;20202;-75
2021/08/20 03:10:06;;;;;;;7.03;5.25;;;;;20.50;101294.00;;;;5053645;28;20207;-76
2021/08/20 03:12:33;;;;;;;7.68;6.32;;;;;20.50;101299.00;;;;5051022;28;20206;-75
2021/08/20 03:15:01;;;;;;;7.35;5.97;;;;;20.50;101298.00;;;;5050737;28;20203;-75
2021/08/20 03:17:28;;;;;;;6.82;6.05;;;;;20.50;101306.00;;;;5051018;28;20719;-76
2021/08/20 03:19:55;;;;;;;7.40;6.32;;;;;20.50;101306.00;;;;5050587;28;20227;-76
2021/08/20 03:22:23;;;;;;;7.95;6.20;;;;;20.50;101306.00;;;;5050541;28;20207;-76
2021/08/20 03:24:51;;;;;;;6.40;5.75;;;;;20.50;101306.00;;;;5051081;28;20212;-76
2021/08/20 03:27:19;;;;;;;8.40;6.85;;;;;20.50;101300.00;;;;5051552;28;20204;-76
2021/08/20 03:29:46;;;;;;;9.55;6.45;;;;;20.50;101305.00;;;;5050124;28;20617;-76
2021/08/20 03:32:13;;;;;;;8.15;7.18;;;;;20.50;101305.00;;;;5050655;28;20210;-76
2021/08/20 03:34:40;;;;;;;7.43;5.82;;;;;20.60;101299.00;;;;5050841;28;20578;-76
2021/08/20 03:37:08;;;;;;;8.75;5.95;;;;;20.60;101301.00;;;;5050699;28;20223;-76
2021/08/20 03:39:35;;;;;;;9.55;6.10;;;;;20.60;101296.00;;;;5050190;28;20643;-76
2021/08/20 03:42:04;;;;;;;6.63;5.28;;;;;20.60;101297.00;;;;5051183;28;20219;-76
2021/08/20 03:44:31;;;;;;;7.93;5.90;;;;;20.60;101304.00;;;;5070851;28;20202;-76
2021/08/20 03:46:59;;;;;;;7.55;6.60;;;;;20.60;101298.00;;;;5069879;28;20199;-76
2021/08/20 03:49:26;;;;;;;6.32;5.72;;;;;20.60;101300.00;;;;5070087;28;20202;-76
2021/08/20 03:51:53;;;;;;;7.03;5.85;;;;;20.60;101302.00;;;;5062035;28;20208;-76
2021/08/20 03:54:21;;;;;;;6.85;5.80;;;;;20.60;101301.00;;;;5050571;28;20210;-76
2021/08/20 03:56:48;;;;;;;8.63;6.72;;;;;20.60;101303.00;;;;5049965;28;20208;-76
2021/08/20 03:59:16;;;;;;;9.10;6.03;;;;;20.60;101298.00;;;;5052261;28;20235;-76
2021/08/20 04:01:44;;;;;;;7.68;6.45;;;;;20.60;101299.00;;;;5050402;28;20192;-76
2021/08/20 04:04:11;;;;;;;7.53;6.70;;;;;20.60;101292.00;;;;5050188;28;20203;-76
2021/08/20 04:06:39;;;;;;;8.48;6.70;;;;;20.60;101296.00;;;;5049580;28;20215;-76
2021/08/20 04:09:07;;;;;;;8.02;6.18;;;;;20.60;101300.00;;;;5049771;28;20204;-76
2021/08/20 04:11:34;;;;;;;8.27;6.78;;;;;20.70;101304.00;;;;5050366;28;20257;-76
2021/08/20 04:14:02;;;;;;;8.07;6.63;;;;;20.70;101306.00;;;;5050353;28;20199;-76
2021/08/20 04:16:33;;;;;;;7.05;6.25;;;;;20.70;101307.00;;;;5050486;28;20204;-76
2021/08/20 04:19:01;;;;;;;7.95;6.32;;;;;20.70;101306.00;;;;5049755;28;20219;-76
2021/08/20 04:21:28;;;;;;;8.95;6.45;;;;;20.70;101320.00;;;;5049875;28;20207;-76
2021/08/20 04:23:55;;;;;;;9.43;7.53;;;;;20.80;101317.00;;;;5049374;28;20555;-77
2021/08/20 04:26:22;;;;;;;8.07;6.72;;;;;20.80;101308.00;;;;5048226;28;20670;-77
2021/08/20 04:28:51;;;;;;;7.95;6.63;;;;;20.80;101314.00;;;;5049228;28;20676;-77
2021/08/20 04:31:18;;;;;;;8.02;6.57;;;;;20.80;101316.00;;;;5048470;28;20592;-77
2021/08/20 04:33:47;;;;;;;7.88;6.43;;;;;20.80;101313.00;;;;5049246;28;20531;-76
2021/08/20 04:36:14;;;;;;;10.82;6.57;;;;;20.90;101308.00;;;;5048746;28;20289;-77
2021/08/20 04:38:43;;;;;;;11.10;7.47;;;;;20.90;101314.00;;;;5049254;28;20203;-77
2021/08/20 04:41:10;;;;;;;8.52;7.00;;;;;20.90;101321.00;;;;5047970;28;20229;-77
2021/08/20 04:43:38;;;;;;;8.93;6.50;;;;;20.90;101323.00;;;;5048820;28;20218;-77
2021/08/20 04:46:05;;;;;;;9.57;6.68;;;;;21.00;101328.00;;;;5049054;28;20199;-76
2021/08/20 04:48:32;;;;;;;12.45;7.90;;;;;21.00;101334.00;;;;5048735;28;20233;-77
2021/08/20 04:51:01;;;;;;;8.40;6.57;;;;;21.00;101332.00;;;;5048946;28;20203;-76
2021/08/20 04:53:30;;;;;;;9.80;6.82;;;;;21.00;101336.00;;;;5049346;28;20195;-77
2021/08/20 04:55:58;;;;;;;8.45;6.70;;;;;21.00;101339.00;;;;5049645;28;20303;-77
2021/08/20 04:58:25;;;;;;;8.43;7.03;;;;;21.10;101331.00;;;;5048444;28;20230;-77
2021/08/20 05:00:53;;;;;;;9.27;6.90;;;;;21.10;101335.00;;;;5049418;28;20227;-77
2021/08/20 05:03:21;;;;;;;11.68;7.95;;;;;21.10;101340.00;;;;5048960;28;20233;-77
2021/08/20 05:05:49;;;;;;;9.90;6.60;;;;;21.10;101358.00;;;;5049471;28;20203;-77
2021/08/20 05:08:18;;;;;;;9.95;6.47;;;;;21.10;101352.00;;;;5059603;28;20206;-77
2021/08/20 05:10:45;;;;;;;10.45;6.55;;;;;21.20;101349.00;;;;5068767;28;20207;-77
2021/08/20 05:13:12;;;;;;;8.23;6.65;;;;;21.20;101355.00;;;;5068601;28;20203;-76
2021/08/20 05:15:40;;;;;;;9.80;7.45;;;;;21.20;101350.00;;;;5069268;28;20195;-77
2021/08/20 05:18:07;;;;;;;10.85;7.07;;;;;21.20;101359.00;;;;5068877;28;20190;-77
2021/08/20 05:20:34;;;;;;;11.30;7.15;;;;;21.30;101359.00;;;;5068562;28;20237;-77
2021/08/20 05:23:01;;;;;;;9.18;6.95;;;;;21.30;101363.00;;;;5068799;28;20203;-77
2021/08/20 05:25:35;;;;;;;7.10;6.35;;;;;21.20;101363.00;;;;5067489;28;20198;-77
2021/08/20 05:28:03;;;;;;;12.75;6.78;;;;;21.30;101367.00;;;;5069158;28;20199;-77
2021/08/20 05:30:31;;;;;;;8.52;6.40;;;;;21.40;101368.00;;;;5069208;28;20430;-77
2021/08/20 05:32:58;;;;;;;10.23;7.72;;;;;21.40;101375.00;;;;5068651;28;20306;-77
2021/08/20 05:35:25;;;;;;;9.32;7.30;;;;;21.40;101380.00;;;;5068148;28;20198;-77
2021/08/20 05:37:53;;;;;;;10.20;7.00;;;;;21.40;101375.00;;;;5070051;28;20209;-77
2021/08/20 05:40:20;;;;;;;12.70;7.32;;;;;21.50;101372.00;;;;5072503;28;20229;-77
2021/08/20 05:42:48;;;;;;;9.80;6.95;;;;;21.50;101368.00;;;;5071904;28;20229;-76
2021/08/20 05:45:16;;;;;;;7.35;6.13;;;;;21.50;101365.00;;;;5072257;28;20202;-77
2021/08/20 05:47:43;;;;;;;8.30;6.78;;;;;21.50;101370.00;;;;5072832;28;20207;-77
2021/08/20 05:50:10;;;;;;;7.20;6.45;;;;;21.60;101371.00;;;;5070088;28;20203;-76
2021/08/20 05:52:38;;;;;;;12.73;6.95;;;;;21.50;101370.00;;;;5052394;28;20273;-77
2021/08/20 05:55:07;;;;;;;9.85;7.57;;;;;21.60;101378.00;;;;5053357;28;20253;-76
2021/08/20 05:57:34;;;;;;;13.43;7.10;;;;;21.60;101383.00;;;;5052898;28;20203;-77
2021/08/20 06:00:04;;;;;;;11.15;6.57;;;;;21.60;101382.00;;;;5058397;28;20210;-77
2021/08/20 06:02:31;;;;;;;10.90;6.53;;;;;21.60;101386.00;;;;5057790;28;20207;-76
2021/08/20 06:04:59;;;;;;;7.97;6.88;;;;;21.60;101384.00;;;;5052506;28;20207;-77
2021/08/20 06:07:26;;;;;;;9.80;7.38;;;;;21.60;101393.00;;;;5052339;28;20239;-77
2021/08/20 06:09:53;;;;;;;8.68;6.88;;;;;21.70;101387.00;;;;5052457;28;20191;-77
2021/08/20 06:12:20;;;;;;;9.18;6.93;;;;;21.70;101388.00;;;;5052105;28;20209;-77
2021/08/20 06:14:48;;;;;;;10.20;7.30;;;;;21.70;101397.00;;;;5051977;28;20211;-77
2021/08/20 06:17:16;;;;;;;8.63;6.80;;;;;21.80;101390.00;;;;5070434;28;20215;-77
2021/08/20 06:19:43;;;;;;;12.95;7.43;;;;;21.80;101391.00;;;;5071900;28;20223;-77
2021/08/20 06:22:11;;;;;;;9.93;7.35;;;;;21.80;101389.00;;;;5071979;28;20203;-77
2021/08/20 06:24:38;;;;;;;10.77;7.72;;;;;21.90;101388.00;;;;5071907;28;20199;-77
2021/08/20 06:27:06;;;;;;;9.70;7.00;;;;;21.90;101388.00;;;;5072211;28;20664;-77
2021/08/20 06:29:33;;;;;;;10.43;7.78;;;;;22.00;101388.00;;;;5072059;28;20238;-77
2021/08/20 06:32:00;;;;;;;11.13;7.45;;;;;22.00;101393.00;;;;5071163;28;20207;-77
2021/08/20 06:34:30;;;;;;;10.38;6.88;;;;;22.10;101395.00;;;;5052232;28;20215;-74
2021/08/20 06:36:57;;;;;;;10.73;7.60;;;;;22.10;101392.00;;;;5051602;28;20236;-74
2021/08/20 06:39:25;;;;;;;11.52;7.50;;;;;22.10;101395.00;;;;5051406;28;20200;-75
2021/08/20 06:41:52;;;;;;;8.23;6.90;;;;;22.20;101395.00;;;;5051558;28;20220;-75
2021/08/20 06:44:19;;;;;;;9.13;6.63;;;;;22.20;101390.00;;;;5051275;28;20199;-76
2021/08/20 06:46:47;;;;;;;9.20;7.15;;;;;22.20;101391.00;;;;5051779;28;20204;-76
2021/08/20 06:49:14;;;;;;;9.20;6.68;;;;;22.30;101392.00;;;;5050866;28;20211;-75
2021/08/20 06:51:42;;;;;;;11.68;7.43;;;;;22.30;101392.00;;;;5066415;28;20199;-76
2021/08/20 06:54:10;;;;;;;11.50;7.32;;;;;22.30;101388.00;;;;5071573;28;20202;-75
2021/08/20 06:56:37;;;;;;;8.40;6.88;;;;;22.40;101395.00;;;;5072012;28;20202;-75
2021/08/20 06:59:04;;;;;;;10.73;7.40;;;;;22.40;101385.00;;;;5069726;28;20198;-75
2021/08/20 07:01:31;;;;;;;7.60;6.32;;;;;22.50;101387.00;;;;5051437;28;20227;-75
2021/08/20 07:03:59;;;;;;;9.35;6.32;;;;;22.60;101392.00;;;;5051363;28;20210;-76
2021/08/20 07:06:27;;;;;;;7.22;5.93;;;;;22.60;101395.00;;;;5055015;28;20574;-76
2021/08/20 07:08:56;;;;;;;10.70;7.13;;;;;22.70;101405.00;;;;5071120;28;20701;-76
2021/08/20 07:11:25;;;;;;;9.15;6.45;;;;;22.80;101405.00;;;;5071378;28;20233;-77
2021/08/20 07:13:52;;;;;;;7.35;6.35;;;;;22.90;101408.00;;;;5070808;28;20203;-75
2021/08/20 07:16:20;;;;;;;8.07;5.47;;;;;23.00;101406.00;;;;5071071;28;20230;-76
2021/08/20 07:18:47;;;;;;;9.90;6.85;;;;;23.10;101409.00;;;;5071110;28;20202;-76
2021/08/20 07:21:14;;;;;;;8.35;5.93;;;;;23.20;101417.00;;;;5069928;28;20223;-77
2021/08/20 07:23:42;;;;;;;10.32;5.75;;;;;23.20;101420.00;;;;5069781;28;20207;-76
2021/08/20 07:26:10;;;;;;;10.98;6.97;;;;;23.30;101422.00;;;;5070075;28;20214;-76
2021/08/20 07:28:38;;;;;;;10.60;6.45;;;;;23.40;101423.00;;;;5070065;28;20670;-76
2021/08/20 07:31:06;;;;;;;7.50;5.85;;;;;23.40;101428.00;;;;5070839;28;20211;-76
2021/08/20 07:33:34;;;;;;;7.40;5.88;;;;;23.50;101427.00;;;;5070667;28;20221;-76
2021/08/20 07:36:01;;;;;;;9.32;6.38;;;;;23.50;101431.00;;;;5070596;28;20223;-76
2021/08/20 07:38:29;;;;;;;8.05;5.78;;;;;23.60;101422.00;;;;5070362;28;20249;-76
2021/08/20 07:40:56;;;;;;;7.88;6.20;;;;;23.60;101432.00;;;;5069231;28;20227;-76
2021/08/20 07:43:25;;;;;;;8.82;6.13;;;;;23.60;101435.00;;;;5070438;28;20211;-75
2021/08/20 07:45:52;;;;;;;8.25;6.28;;;;;23.70;101430.00;;;;5070909;28;20195;-76
2021/08/20 07:48:19;;;;;;;7.53;5.97;;;;;23.70;101428.00;;;;5069861;28;20195;-76
2021/08/20 07:50:47;;;;;;;7.13;6.43;;;;;23.80;101425.00;;;;5054682;28;20200;-76
2021/08/20 07:53:16;;;;;;;8.40;7.22;;;;;23.90;101426.00;;;;5050565;28;20211;-76
2021/08/20 07:55:44;;;;;;;8.02;6.88;;;;;24.00;101428.00;;;;5050509;28;20610;-76
2021/08/20 07:58:11;;;;;;;8.50;6.30;;;;;24.00;101423.00;;;;5050894;28;20206;-77
2021/08/20 08:00:40;;;;;;;7.50;6.55;;;;;24.10;101427.00;;;;5061832;28;20223;-76
2021/08/20 08:03:07;;;;;;;7.90;6.05;;;;;24.20;101436.00;;;;5070003;28;20693;-75
2021/08/20 08:05:34;;;;;;;8.05;6.03;;;;;24.30;101435.00;;;;5070280;28;20202;-76
2021/08/20 08:08:02;;;;;;;8.98;6.18;;;;;24.30;101433.00;;;;5070192;28;20203;-76
2021/08/20 08:10:29;;;;;;;6.72;5.40;;;;;24.40;101440.00;;;;5069361;28;20617;-76
2021/08/20 08:12:57;;;;;;;7.95;5.80;;;;;24.40;101427.00;;;;5070414;28;20209;-76
2021/08/20 08:15:24;;;;;;;7.50;5.50;;;;;24.40;101432.00;;;;5057680;28;20207;-75
2021/08/20 08:17:55;;;;;;;7.25;5.32;;;;;24.40;101435.00;;;;5049681;28;20594;-76
2021/08/20 08:20:23;;;;;;;7.05;6.15;;;;;24.40;101438.00;;;;5049563;28;20227;-76
2021/08/20 08:22:50;;;;;;;7.32;6.22;;;;;24.40;101435.00;;;;5049986;28;20740;-76
2021/08/20 08:25:17;;;;;;;7.18;6.13;;;;;24.50;101440.00;;;;5049311;28;20200;-76
2021/08/20 08:27:56;;;;;;;9.05;6.90;;;;;24.50;101441.00;;;;5050036;28;20285;-76
2021/08/20 08:30:25;;;;;;;6.82;5.75;;;;;24.60;101441.00;;;;5049440;28;20741;-76
2021/08/20 08:32:54;;;;;;;6.63;5.80;;;;;24.70;101445.00;;;;5049486;28;20211;-76
2021/08/20 08:35:22;;;;;;;6.07;5.40;;;;;24.80;101459.00;;;;5049643;28;20236;-76
2021/08/20 08:37:49;;;;;;;8.02;6.43;;;;;24.90;101456.00;;;;5049662;28;20206;-76
2021/08/20 08:40:17;;;;;;;8.15;6.40;;;;;24.90;101459.00;;;;5049023;28;20204;-75
2021/08/20 08:42:44;;;;;;;8.75;6.43;;;;;24.90;101459.00;;;;5049603;28;20600;-76
2021/08/20 08:45:12;;;;;;;6.78;5.80;;;;;25.00;101455.00;;;;5049076;28;20200;-76
2021/08/20 08:47:39;;;;;;;6.78;6.07;;;;;25.00;101462.00;;;;5049179;28;20203;-77
2021/08/20 08:50:09;;;;;;;6.78;6.05;;;;;25.00;101465.00;;;;5049588;28;20662;-76
2021/08/20 08:52:37;;;;;;;5.95;5.35;;;;;25.00;101466.00;;;;5049812;28;20211;-76
2021/08/20 08:55:07;;;;;;;6.90;5.93;;;;;25.00;101457.00;;;;5049141;28;20211;-76
2021/08/20 08:57:34;;;;;;;7.35;5.95;;;;;25.10;101461.00;;;;5049251;28;20207;-76
2021/08/20 09:00:02;;;;;;;5.60;4.85;;;;;25.10;101464.00;;;;5052860;28;20199;-76
2021/08/20 09:02:32;;;;;;;6.82;5.95;;;;;25.10;101463.00;;;;5059739;28;20218;-76
2021/08/20 09:05:02;;;;;;;9.13;5.65;;;;;25.10;101469.00;;;;5067926;28;20203;-76
2021/08/20 09:07:33;;;;;;;6.55;5.40;;;;;25.10;101468.00;;;;5049126;28;20199;-75
2021/08/20 09:10:16;;;;;;;7.90;6.07;;;;;25.10;101474.00;;;;5049058;28;20200;-75
2021/08/20 09:12:54;;;;;;;7.25;5.28;;;;;25.20;101475.00;;;;5048997;28;20202;-76
2021/08/20 09:15:26;;;;;;;7.13;5.35;;;;;25.20;101467.00;;;;5048260;28;20214;-76
2021/08/20 09:17:55;;;;;;;6.03;5.32;;;;;25.30;101463.00;;;;5048957;28;20195;-75
2021/08/20 09:20:25;;;;;;;6.75;5.90;;;;;25.30;101467.00;;;;5048623;28;20211;-75
2021/08/20 09:22:55;;;;;;;5.45;4.95;;;;;25.30;101465.00;;;;5049808;28;20231;-76
2021/08/20 09:25:34;;;;;;;7.07;5.30;;;;;25.30;101466.00;;;;5048366;28;20199;-76
2021/08/20 09:28:16;;;;;;;5.78;5.00;;;;;25.30;101472.00;;;;5047820;28;20207;-76
2021/08/20 09:30:44;;;;;;;7.15;5.35;;;;;25.60;101465.00;;;;5048879;28;20208;-77
2021/08/20 09:33:16;;;;;;;6.38;4.90;;;;;25.60;101473.00;;;;5048298;28;20232;-76
2021/08/20 09:35:43;;;;;;;5.82;5.25;;;;;25.70;101475.00;;;;5048839;28;20204;-77
2021/08/20 09:38:14;;;;;;;6.70;5.78;;;;;25.80;101472.00;;;;5048157;28;20686;-77
2021/08/20 09:40:54;;;;;;;5.65;5.05;;;;;25.80;101472.00;;;;5061904;28;20210;-77
2021/08/20 09:43:28;;;;;;;6.07;4.88;;;;;25.90;101476.00;;;;5066683;28;20221;-77
2021/08/20 09:46:02;;;;;;;8.70;5.20;;;;;26.00;101473.00;;;;5066202;28;20242;-76
2021/08/20 09:48:51;;;;;;;4.70;4.30;;;;;26.00;101481.00;;;;5061357;28;20202;-77
2021/08/20 09:51:42;;;;;;;5.68;4.72;;;;;26.10;101478.00;;;;5046364;28;20204;-77
2021/08/20 09:54:13;;;;;;;5.72;4.53;;;;;26.20;101479.00;;;;5046627;28;20195;-76
2021/08/20 09:56:41;;;;;;;5.95;4.60;;;;;26.30;101480.00;;;;5047357;28;20666;-77
2021/08/20 09:59:10;;;;;;;5.22;4.47;;;;;26.40;101488.00;;;;5048034;28;20210;-77
2021/08/20 10:01:39;;;;;;;6.00;4.15;;;;;26.40;101494.00;;;;5048588;28;20576;-78
2021/08/20 10:04:08;;;;;;;4.88;4.30;;;;;26.40;101496.00;;;;5048543;28;20206;-78
2021/08/20 10:06:37;;;;;;;7.03;4.50;;;;;26.50;101495.00;;;;5048331;28;20203;-77
2021/08/20 10:09:07;;;;;;;5.95;4.55;;;;;26.50;101505.00;;;;5047845;28;20207;-77
2021/08/20 10:11:40;;;;;;;5.47;4.97;;;;;26.50;101498.00;;;;5048563;28;20200;-78
2021/08/20 10:14:08;;;;;;;7.53;4.80;;;;;26.60;101500.00;;;;5048909;28;20208;-78
2021/08/20 10:16:37;;;;;;;7.50;5.75;;;;;26.50;101503.00;;;;5048679;28;20192;-77
2021/08/20 10:19:06;;;;;;;6.28;5.28;;;;;26.60;101504.00;;;;5048257;28;20208;-77
2021/08/20 10:21:35;;;;;;;9.80;5.30;;;;;26.60;101501.00;;;;5048289;28;20231;-78
2021/08/20 10:24:04;;;;;;;5.35;4.60;;;;;26.60;101502.00;;;;5047686;28;20200;-77
2021/08/20 10:26:32;;;;;;;4.75;4.07;;;;;26.60;101508.00;;;;5051933;28;20222;-77
2021/08/20 10:29:02;;;;;;;4.88;4.38;;;;;26.60;101495.00;;;;5051861;28;20681;-77
2021/08/20 10:31:31;;;;;;;5.85;4.43;;;;;26.80;101500.00;;;;5052290;28;20199;-77
2021/08/20 10:33:58;;;;;;;4.78;4.05;;;;;26.90;101491.00;;;;5051770;28;20234;-77
2021/08/20 10:36:41;;;;;;;7.95;4.82;;;;;26.90;101497.00;;;;5051776;28;20712;-78
2021/08/20 10:39:09;;;;;;;4.35;3.95;;;;;27.10;101492.00;;;;5049804;28;20196;-77
2021/08/20 10:41:36;;;;;;;6.70;4.63;;;;;27.20;101495.00;;;;5051630;28;20220;-78
2021/08/20 10:44:16;;;;;;;4.80;4.30;;;;;27.30;101490.00;;;;5051623;28;20684;-78
2021/08/20 10:47:08;;;;;;;4.97;4.10;;;;;27.30;101497.00;;;;5051973;28;20203;-77
2021/08/20 10:49:40;;;;;;;6.47;4.10;;;;;27.50;101495.00;;;;5050960;28;20235;-78
2021/08/20 10:52:07;;;;;;;4.20;3.78;;;;;27.60;101498.00;;;;5051577;28;20199;-78
2021/08/20 10:55:20;;;;;;;4.32;3.92;;;;;27.70;101492.00;;;;5051943;28;20737;-77
2021/08/20 10:58:13;;;;;;;6.75;3.42;;;;;27.80;101499.00;;;;5045379;28;20203;-78
2021/08/20 11:00:55;;;;;;;6.05;3.67;;;;;28.00;101505.00;;;;5061567;28;20616;-78
2021/08/20 11:03:41;;;;;;;5.35;3.97;;;;;28.10;101504.00;;;;5071415;28;20253;-79
2021/08/20 11:06:08;;;;;;;3.85;3.45;;;;;28.30;101508.00;;;;5053240;28;20265;-78
2021/08/20 11:08:38;;;;;;;4.47;4.07;;;;;28.30;101504.00;;;;5051782;28;20250;-78
2021/08/20 11:11:27;;;;;;;6.78;4.75;;;;;28.30;101507.00;;;;5051385;28;20269;-78
2021/08/20 11:14:27;;;;;;;6.72;4.55;;;;;28.10;101521.00;;;;5051361;28;20210;-78
2021/08/20 11:16:55;;;;;;;4.35;3.50;;;;;28.20;101518.00;;;;5051390;28;20222;-78
2021/08/20 11:19:48;;;;;;;6.38;4.15;;;;;28.10;101525.00;;;;5051268;28;20215;-78
2021/08/20 11:22:20;;;;;;;4.05;2.92;;;;;28.20;101522.00;;;;5051608;28;20231;-77
2021/08/20 11:25:08;;;;;;;4.82;3.38;;;;;28.10;101523.00;;;;5050631;28;20794;-77
2021/08/20 11:27:36;;;;;;;3.55;3.08;;;;;28.30;101517.00;;;;5050668;28;20210;-78
2021/08/20 11:30:04;;;;;;;3.33;2.97;;;;;28.30;101516.00;;;;5051122;28;20199;-77
2021/08/20 11:32:33;;;;;;;4.40;3.40;;;;;28.40;101517.00;;;;5051385;28;20223;-77
2021/08/20 11:35:00;;;;;;;5.63;3.45;;;;;28.40;101515.00;;;;5050901;28;20277;-78
2021/08/20 11:37:27;;;;;;;4.00;3.58;;;;;28.50;101514.00;;;;5050305;28;20259;-78
2021/08/20 11:40:02;;;;;;;2.72;2.40;;;;;28.50;101522.00;;;;5051311;28;20685;-79
2021/08/20 11:42:29;;;;;;;3.03;2.72;;;;;28.60;101516.00;;;;5049957;28;20288;-78
2021/08/20 11:44:57;;;;;;;4.15;3.40;;;;;28.60;101517.00;;;;5050306;28;20195;-77
2021/08/20 11:47:24;;;;;;;4.07;3.50;;;;;28.60;101523.00;;;;5050540;28;20689;-77
2021/08/20 11:49:57;;;;;;;4.68;3.80;;;;;28.60;101520.00;;;;5050159;28;20200;-78
2021/08/20 11:52:24;;;;;;;4.85;3.25;;;;;28.60;101519.00;;;;5050321;28;20200;-78
2021/08/20 11:54:51;;;;;;;4.18;3.17;;;;;28.50;101520.00;;;;5049992;28;20212;-78
2021/08/20 11:57:19;;;;;;;2.70;2.47;;;;;28.50;101530.00;;;;5069106;28;20676;-77
2021/08/20 11:59:54;;;;;;;3.28;2.90;;;;;28.30;101524.00;;;;5068064;28;20233;-78
2021/08/20 12:02:21;;;;;;;2.75;2.47;;;;;28.40;101526.00;;;;5058181;28;20222;-78
2021/08/20 12:04:48;;;;;;;3.15;2.47;;;;;28.30;101525.00;;;;5070100;28;20187;-77
2021/08/20 12:07:35;;;;;;;3.72;2.65;;;;;28.20;101522.00;;;;5069451;28;20623;-77
2021/08/20 12:10:02;;;;;;;3.60;2.72;;;;;28.40;101523.00;;;;5069836;28;20258;-78
2021/08/20 12:12:33;;;;;;;3.13;2.38;;;;;28.40;101522.00;;;;5065172;28;20298;-78
2021/08/20 12:15:01;;;;;;;3.22;2.60;;;;;28.50;101518.00;;;;5049269;28;20278;-78